KMOT/MOT METAR and TAF weather

Enter ICAO airport designator
Station Type Date Time Source
KMOT METAR 2022/01/29 13:54 UTC NOAA

KMOT 291354Z 29020KT 10SM CLR M02/M08 A2988 RMK AO2 PK WND 30028/1334 SLP146 T10171078


Station Type Date Time Source
KMOT Decoded METAR 2022/01/29 13:54 UTC NOAA

MINOT INTERNATIONAL AIRPORT , ND, United States (KMOT) 48-16N 101-17W 519M
Jan 29, 2022 - 08:54 AM EST / 2022.01.29 1354 UTC
Wind: from the WNW (290 degrees) at 23 MPH (20 KT):0
Visibility: 10 mile(s):0
Sky conditions: clear
Temperature: 28.9 F (-1.7 C)
Windchill: 15 F (-9 C):1
Dew Point: 18.0 F (-7.8 C)
Relative Humidity: 63%
Pressure (altimeter): 29.88 in. Hg (1011 hPa)
ob: KMOT 291354Z 29020KT 10SM CLR M02/M08 A2988 RMK AO2 PK WND 30028/1334 SLP146 T10171078
cycle: 14

Station Type Date Time Source
KMOT TAF 2022/01/29 12:28 UTC NOAA

TAF KMOT 291126Z 2912/3012 27019G28KT P6SM OVC200
FM292100 31011KT P6SM FEW200
FM300300 VRB05KT P6SM BKN050

Example: see airport list